sensor_id;sensor_type;location;lat;lon;timestamp;P1;durP1;ratioP1;P2;durP2;ratioP2
60054;SDS011;45930;53.514;55.904;2023-04-07T00:00:34;12.18;;;7.57;;
60054;SDS011;45930;53.514;55.904;2023-04-07T00:01:35;8.90;;;7.15;;
60054;SDS011;45930;53.514;55.904;2023-04-07T00:02:36;10.38;;;7.03;;
60054;SDS011;45930;53.514;55.904;2023-04-07T00:03:37;13.90;;;7.68;;
60054;SDS011;45930;53.514;55.904;2023-04-07T00:04:40;11.07;;;7.47;;
60054;SDS011;45930;53.514;55.904;2023-04-07T00:05:41;10.48;;;7.35;;
60054;SDS011;45930;53.514;55.904;2023-04-07T00:06:41;9.25;;;6.78;;
60054;SDS011;45930;53.514;55.904;2023-04-07T00:07:42;9.48;;;6.97;;
60054;SDS011;45930;53.514;55.904;2023-04-07T00:08:43;9.85;;;7.68;;
60054;SDS011;45930;53.514;55.904;2023-04-07T00:09:44;13.55;;;8.10;;
60054;SDS011;45930;53.514;55.904;2023-04-07T00:10:45;10.65;;;7.85;;
60054;SDS011;45930;53.514;55.904;2023-04-07T00:11:46;11.90;;;7.95;;
60054;SDS011;45930;53.514;55.904;2023-04-07T00:12:47;9.50;;;7.63;;
60054;SDS011;45930;53.514;55.904;2023-04-07T00:13:48;9.90;;;7.35;;
60054;SDS011;45930;53.514;55.904;2023-04-07T00:14:49;14.80;;;8.38;;
60054;SDS011;45930;53.514;55.904;2023-04-07T00:15:50;12.73;;;7.45;;
60054;SDS011;45930;53.514;55.904;2023-04-07T00:16:51;10.93;;;7.43;;
60054;SDS011;45930;53.514;55.904;2023-04-07T00:17:52;12.70;;;8.23;;
60054;SDS011;45930;53.514;55.904;2023-04-07T00:18:53;11.48;;;7.75;;
60054;SDS011;45930;53.514;55.904;2023-04-07T00:19:53;11.20;;;7.20;;
60054;SDS011;45930;53.514;55.904;2023-04-07T00:20:54;13.73;;;8.25;;
60054;SDS011;45930;53.514;55.904;2023-04-07T00:21:55;8.90;;;7.63;;
60054;SDS011;45930;53.514;55.904;2023-04-07T00:22:56;9.55;;;7.20;;
60054;SDS011;45930;53.514;55.904;2023-04-07T00:23:57;12.77;;;7.85;;
60054;SDS011;45930;53.514;55.904;2023-04-07T00:24:58;11.45;;;7.55;;
60054;SDS011;45930;53.514;55.904;2023-04-07T00:25:59;9.80;;;7.07;;
60054;SDS011;45930;53.514;55.904;2023-04-07T00:27:00;12.23;;;8.02;;
60054;SDS011;45930;53.514;55.904;2023-04-07T00:28:01;11.93;;;8.13;;
60054;SDS011;45930;53.514;55.904;2023-04-07T00:29:02;14.02;;;7.68;;
60054;SDS011;45930;53.514;55.904;2023-04-07T00:30:03;10.57;;;7.78;;
60054;SDS011;45930;53.514;55.904;2023-04-07T00:31:04;8.98;;;7.28;;
60054;SDS011;45930;53.514;55.904;2023-04-07T00:32:05;10.25;;;8.07;;
60054;SDS011;45930;53.514;55.904;2023-04-07T00:33:06;11.27;;;7.22;;
60054;SDS011;45930;53.514;55.904;2023-04-07T00:34:07;12.85;;;7.43;;
60054;SDS011;45930;53.514;55.904;2023-04-07T00:35:08;10.27;;;7.35;;
60054;SDS011;45930;53.514;55.904;2023-04-07T00:36:09;11.93;;;7.68;;
60054;SDS011;45930;53.514;55.904;2023-04-07T00:37:10;8.65;;;7.32;;
60054;SDS011;45930;53.514;55.904;2023-04-07T00:38:10;10.85;;;7.65;;
60054;SDS011;45930;53.514;55.904;2023-04-07T00:39:12;11.45;;;7.65;;
60054;SDS011;45930;53.514;55.904;2023-04-07T00:40:13;10.63;;;7.97;;
60054;SDS011;45930;53.514;55.904;2023-04-07T00:41:13;13.43;;;8.13;;
60054;SDS011;45930;53.514;55.904;2023-04-07T00:42:15;10.25;;;7.78;;
60054;SDS011;45930;53.514;55.904;2023-04-07T00:43:16;10.35;;;6.85;;
60054;SDS011;45930;53.514;55.904;2023-04-07T00:44:16;8.93;;;8.02;;
60054;SDS011;45930;53.514;55.904;2023-04-07T00:45:17;11.15;;;7.32;;
60054;SDS011;45930;53.514;55.904;2023-04-07T00:46:18;8.27;;;7.45;;
60054;SDS011;45930;53.514;55.904;2023-04-07T00:47:22;10.02;;;7.90;;
60054;SDS011;45930;53.514;55.904;2023-04-07T00:48:22;12.23;;;8.25;;
60054;SDS011;45930;53.514;55.904;2023-04-07T00:49:24;13.13;;;8.77;;
60054;SDS011;45930;53.514;55.904;2023-04-07T00:50:27;11.38;;;7.97;;
60054;SDS011;45930;53.514;55.904;2023-04-07T00:51:28;11.63;;;7.70;;
60054;SDS011;45930;53.514;55.904;2023-04-07T00:52:29;8.85;;;7.95;;
60054;SDS011;45930;53.514;55.904;2023-04-07T00:53:31;14.88;;;8.63;;
60054;SDS011;45930;53.514;55.904;2023-04-07T00:54:32;12.90;;;8.13;;
60054;SDS011;45930;53.514;55.904;2023-04-07T00:55:33;10.55;;;8.32;;
60054;SDS011;45930;53.514;55.904;2023-04-07T00:56:34;10.70;;;8.25;;
60054;SDS011;45930;53.514;55.904;2023-04-07T00:57:35;12.55;;;8.32;;
60054;SDS011;45930;53.514;55.904;2023-04-07T00:58:35;11.90;;;8.38;;
60054;SDS011;45930;53.514;55.904;2023-04-07T00:59:36;11.65;;;8.13;;
60054;SDS011;45930;53.514;55.904;2023-04-07T01:02:09;10.38;;;8.52;;
60054;SDS011;45930;53.514;55.904;2023-04-07T01:03:19;11.93;;;8.43;;
60054;SDS011;45930;53.514;55.904;2023-04-07T01:04:53;11.65;;;9.40;;
60054;SDS011;45930;53.514;55.904;2023-04-07T01:06:01;11.40;;;8.73;;
60054;SDS011;45930;53.514;55.904;2023-04-07T01:07:05;11.73;;;7.63;;
60054;SDS011;45930;53.514;55.904;2023-04-07T01:09:54;9.63;;;8.07;;
60054;SDS011;45930;53.514;55.904;2023-04-07T01:12:43;13.10;;;8.27;;
60054;SDS011;45930;53.514;55.904;2023-04-07T01:13:52;10.05;;;7.63;;
60054;SDS011;45930;53.514;55.904;2023-04-07T01:14:54;12.63;;;7.72;;
60054;SDS011;45930;53.514;55.904;2023-04-07T01:16:00;10.93;;;8.07;;
60054;SDS011;45930;53.514;55.904;2023-04-07T01:17:09;13.43;;;8.30;;
60054;SDS011;45930;53.514;55.904;2023-04-07T01:18:12;10.00;;;8.93;;
60054;SDS011;45930;53.514;55.904;2023-04-07T01:19:33;11.52;;;7.90;;
60054;SDS011;45930;53.514;55.904;2023-04-07T01:20:37;10.15;;;8.02;;
60054;SDS011;45930;53.514;55.904;2023-04-07T01:21:39;11.32;;;7.80;;
60054;SDS011;45930;53.514;55.904;2023-04-07T01:22:45;9.55;;;8.45;;
60054;SDS011;45930;53.514;55.904;2023-04-07T01:26:33;13.88;;;8.25;;
60054;SDS011;45930;53.514;55.904;2023-04-07T01:27:37;13.73;;;8.80;;
60054;SDS011;45930;53.514;55.904;2023-04-07T01:30:18;14.48;;;9.57;;
60054;SDS011;45930;53.514;55.904;2023-04-07T01:31:22;18.35;;;10.63;;
60054;SDS011;45930;53.514;55.904;2023-04-07T01:32:25;19.55;;;11.50;;
60054;SDS011;45930;53.514;55.904;2023-04-07T01:33:28;16.30;;;10.40;;
60054;SDS011;45930;53.514;55.904;2023-04-07T01:34:32;14.13;;;9.88;;
60054;SDS011;45930;53.514;55.904;2023-04-07T01:35:34;19.67;;;11.13;;
60054;SDS011;45930;53.514;55.904;2023-04-07T01:36:36;16.17;;;10.55;;
60054;SDS011;45930;53.514;55.904;2023-04-07T01:37:38;15.23;;;10.93;;
60054;SDS011;45930;53.514;55.904;2023-04-07T01:38:40;15.13;;;11.15;;
60054;SDS011;45930;53.514;55.904;2023-04-07T01:39:42;18.00;;;12.30;;
60054;SDS011;45930;53.514;55.904;2023-04-07T01:40:43;18.27;;;11.10;;
60054;SDS011;45930;53.514;55.904;2023-04-07T01:41:46;17.70;;;12.57;;
60054;SDS011;45930;53.514;55.904;2023-04-07T01:42:50;15.32;;;11.20;;
60054;SDS011;45930;53.514;55.904;2023-04-07T01:43:53;14.63;;;10.43;;
60054;SDS011;45930;53.514;55.904;2023-04-07T01:44:54;13.70;;;10.27;;
60054;SDS011;45930;53.514;55.904;2023-04-07T01:45:57;13.63;;;10.50;;
60054;SDS011;45930;53.514;55.904;2023-04-07T01:46:59;19.48;;;9.93;;
60054;SDS011;45930;53.514;55.904;2023-04-07T01:48:03;13.57;;;10.38;;
60054;SDS011;45930;53.514;55.904;2023-04-07T01:49:05;14.07;;;11.43;;
60054;SDS011;45930;53.514;55.904;2023-04-07T01:50:08;13.13;;;10.13;;
60054;SDS011;45930;53.514;55.904;2023-04-07T01:51:11;17.50;;;11.07;;
60054;SDS011;45930;53.514;55.904;2023-04-07T01:52:18;12.93;;;9.70;;
60054;SDS011;45930;53.514;55.904;2023-04-07T01:53:20;17.80;;;10.45;;
60054;SDS011;45930;53.514;55.904;2023-04-07T01:54:22;13.20;;;9.80;;
60054;SDS011;45930;53.514;55.904;2023-04-07T01:55:24;13.05;;;10.05;;
60054;SDS011;45930;53.514;55.904;2023-04-07T01:56:25;13.02;;;10.40;;
60054;SDS011;45930;53.514;55.904;2023-04-07T01:57:26;12.15;;;9.77;;
60054;SDS011;45930;53.514;55.904;2023-04-07T01:58:27;14.25;;;10.27;;
60054;SDS011;45930;53.514;55.904;2023-04-07T01:59:29;14.60;;;10.23;;
60054;SDS011;45930;53.514;55.904;2023-04-07T02:00:30;18.17;;;11.35;;
60054;SDS011;45930;53.514;55.904;2023-04-07T02:01:31;13.27;;;11.32;;
60054;SDS011;45930;53.514;55.904;2023-04-07T02:02:35;15.07;;;11.90;;
60054;SDS011;45930;53.514;55.904;2023-04-07T02:04:44;32.28;;;12.77;;
60054;SDS011;45930;53.514;55.904;2023-04-07T02:05:54;25.17;;;10.95;;
60054;SDS011;45930;53.514;55.904;2023-04-07T02:07:01;21.33;;;10.88;;
60054;SDS011;45930;53.514;55.904;2023-04-07T02:08:08;22.98;;;11.60;;
60054;SDS011;45930;53.514;55.904;2023-04-07T02:09:12;16.60;;;11.70;;
60054;SDS011;45930;53.514;55.904;2023-04-07T02:10:16;15.60;;;10.80;;
60054;SDS011;45930;53.514;55.904;2023-04-07T02:11:21;14.60;;;11.40;;
60054;SDS011;45930;53.514;55.904;2023-04-07T02:12:25;15.88;;;11.13;;
60054;SDS011;45930;53.514;55.904;2023-04-07T02:13:28;14.00;;;11.73;;
60054;SDS011;45930;53.514;55.904;2023-04-07T02:14:30;18.20;;;11.98;;
60054;SDS011;45930;53.514;55.904;2023-04-07T02:15:32;16.92;;;11.85;;
60054;SDS011;45930;53.514;55.904;2023-04-07T02:16:35;15.07;;;12.13;;
60054;SDS011;45930;53.514;55.904;2023-04-07T02:17:37;13.13;;;11.45;;
60054;SDS011;45930;53.514;55.904;2023-04-07T02:18:41;14.05;;;11.00;;
60054;SDS011;45930;53.514;55.904;2023-04-07T02:19:43;17.73;;;11.65;;
60054;SDS011;45930;53.514;55.904;2023-04-07T02:20:47;14.95;;;11.98;;
60054;SDS011;45930;53.514;55.904;2023-04-07T02:21:49;15.85;;;11.13;;
60054;SDS011;45930;53.514;55.904;2023-04-07T02:22:51;15.80;;;11.00;;
60054;SDS011;45930;53.514;55.904;2023-04-07T02:23:53;16.30;;;11.32;;
60054;SDS011;45930;53.514;55.904;2023-04-07T02:24:53;16.17;;;11.20;;
60054;SDS011;45930;53.514;55.904;2023-04-07T02:25:55;15.07;;;11.60;;
60054;SDS011;45930;53.514;55.904;2023-04-07T02:26:57;14.55;;;11.25;;
60054;SDS011;45930;53.514;55.904;2023-04-07T02:28:00;18.02;;;11.77;;
60054;SDS011;45930;53.514;55.904;2023-04-07T02:29:01;16.75;;;12.05;;
60054;SDS011;45930;53.514;55.904;2023-04-07T02:30:03;19.50;;;11.73;;
60054;SDS011;45930;53.514;55.904;2023-04-07T02:31:04;12.77;;;11.43;;
60054;SDS011;45930;53.514;55.904;2023-04-07T02:32:05;14.65;;;11.55;;
60054;SDS011;45930;53.514;55.904;2023-04-07T02:33:06;15.95;;;11.32;;
60054;SDS011;45930;53.514;55.904;2023-04-07T02:34:07;11.70;;;9.13;;
60054;SDS011;45930;53.514;55.904;2023-04-07T02:35:08;17.42;;;9.95;;
60054;SDS011;45930;53.514;55.904;2023-04-07T02:36:09;11.68;;;9.73;;
60054;SDS011;45930;53.514;55.904;2023-04-07T02:37:10;9.85;;;8.85;;
60054;SDS011;45930;53.514;55.904;2023-04-07T02:38:10;11.00;;;9.35;;
60054;SDS011;45930;53.514;55.904;2023-04-07T02:39:11;11.25;;;8.60;;
60054;SDS011;45930;53.514;55.904;2023-04-07T02:40:12;9.60;;;8.25;;
60054;SDS011;45930;53.514;55.904;2023-04-07T02:41:13;10.00;;;8.40;;
60054;SDS011;45930;53.514;55.904;2023-04-07T02:42:14;9.15;;;8.25;;
60054;SDS011;45930;53.514;55.904;2023-04-07T02:43:15;9.23;;;6.43;;
60054;SDS011;45930;53.514;55.904;2023-04-07T02:44:16;7.35;;;6.65;;
60054;SDS011;45930;53.514;55.904;2023-04-07T02:45:17;7.10;;;6.25;;
60054;SDS011;45930;53.514;55.904;2023-04-07T02:46:18;7.55;;;6.00;;
60054;SDS011;45930;53.514;55.904;2023-04-07T02:47:19;7.25;;;5.93;;
60054;SDS011;45930;53.514;55.904;2023-04-07T02:48:23;7.25;;;5.72;;
60054;SDS011;45930;53.514;55.904;2023-04-07T02:49:23;9.27;;;5.50;;
60054;SDS011;45930;53.514;55.904;2023-04-07T02:50:24;6.88;;;5.80;;
60054;SDS011;45930;53.514;55.904;2023-04-07T02:51:25;5.70;;;5.15;;
60054;SDS011;45930;53.514;55.904;2023-04-07T02:52:26;6.93;;;5.22;;
60054;SDS011;45930;53.514;55.904;2023-04-07T02:53:27;7.57;;;5.15;;
60054;SDS011;45930;53.514;55.904;2023-04-07T02:54:28;7.22;;;4.93;;
60054;SDS011;45930;53.514;55.904;2023-04-07T02:55:29;7.57;;;4.95;;
60054;SDS011;45930;53.514;55.904;2023-04-07T02:56:29;6.28;;;4.72;;
60054;SDS011;45930;53.514;55.904;2023-04-07T02:57:30;5.13;;;4.38;;
60054;SDS011;45930;53.514;55.904;2023-04-07T02:58:31;5.70;;;3.95;;
60054;SDS011;45930;53.514;55.904;2023-04-07T02:59:32;6.35;;;4.50;;
60054;SDS011;45930;53.514;55.904;2023-04-07T03:00:33;6.63;;;4.63;;
60054;SDS011;45930;53.514;55.904;2023-04-07T03:01:34;5.28;;;4.13;;
60054;SDS011;45930;53.514;55.904;2023-04-07T03:02:35;7.75;;;4.45;;
60054;SDS011;45930;53.514;55.904;2023-04-07T03:03:36;5.00;;;4.50;;
60054;SDS011;45930;53.514;55.904;2023-04-07T03:04:38;6.10;;;4.28;;
60054;SDS011;45930;53.514;55.904;2023-04-07T03:05:39;5.95;;;4.53;;
60054;SDS011;45930;53.514;55.904;2023-04-07T03:06:40;6.82;;;4.30;;
60054;SDS011;45930;53.514;55.904;2023-04-07T03:07:40;4.68;;;4.05;;
60054;SDS011;45930;53.514;55.904;2023-04-07T03:08:41;5.35;;;4.25;;
60054;SDS011;45930;53.514;55.904;2023-04-07T03:09:42;7.13;;;4.30;;
60054;SDS011;45930;53.514;55.904;2023-04-07T03:10:42;4.95;;;4.38;;
60054;SDS011;45930;53.514;55.904;2023-04-07T03:11:43;5.30;;;3.75;;
60054;SDS011;45930;53.514;55.904;2023-04-07T03:12:44;8.27;;;4.78;;
60054;SDS011;45930;53.514;55.904;2023-04-07T03:13:45;4.47;;;4.07;;
60054;SDS011;45930;53.514;55.904;2023-04-07T03:14:45;5.22;;;4.30;;
60054;SDS011;45930;53.514;55.904;2023-04-07T03:15:46;6.25;;;4.50;;
60054;SDS011;45930;53.514;55.904;2023-04-07T03:16:47;6.43;;;4.47;;
60054;SDS011;45930;53.514;55.904;2023-04-07T03:17:48;8.60;;;5.60;;
60054;SDS011;45930;53.514;55.904;2023-04-07T03:18:48;6.25;;;4.68;;
60054;SDS011;45930;53.514;55.904;2023-04-07T03:19:49;5.78;;;4.68;;
60054;SDS011;45930;53.514;55.904;2023-04-07T03:20:51;6.75;;;3.92;;
60054;SDS011;45930;53.514;55.904;2023-04-07T03:21:52;6.38;;;3.88;;
60054;SDS011;45930;53.514;55.904;2023-04-07T03:22:53;4.38;;;3.88;;
60054;SDS011;45930;53.514;55.904;2023-04-07T03:23:54;8.15;;;4.45;;
60054;SDS011;45930;53.514;55.904;2023-04-07T03:24:54;5.20;;;4.10;;
60054;SDS011;45930;53.514;55.904;2023-04-07T03:25:55;6.78;;;4.55;;
60054;SDS011;45930;53.514;55.904;2023-04-07T03:26:57;8.27;;;4.60;;
60054;SDS011;45930;53.514;55.904;2023-04-07T03:27:58;5.20;;;3.92;;
60054;SDS011;45930;53.514;55.904;2023-04-07T03:28:58;10.90;;;3.80;;
60054;SDS011;45930;53.514;55.904;2023-04-07T03:29:59;4.90;;;4.40;;
60054;SDS011;45930;53.514;55.904;2023-04-07T03:31:00;3.75;;;3.33;;
60054;SDS011;45930;53.514;55.904;2023-04-07T03:32:01;7.03;;;4.10;;
60054;SDS011;45930;53.514;55.904;2023-04-07T03:33:01;7.55;;;4.30;;
60054;SDS011;45930;53.514;55.904;2023-04-07T03:34:03;4.53;;;3.97;;
60054;SDS011;45930;53.514;55.904;2023-04-07T03:35:04;6.43;;;4.03;;
60054;SDS011;45930;53.514;55.904;2023-04-07T03:36:05;7.07;;;4.50;;
60054;SDS011;45930;53.514;55.904;2023-04-07T03:37:06;6.45;;;4.20;;
60054;SDS011;45930;53.514;55.904;2023-04-07T03:38:07;6.55;;;4.82;;
60054;SDS011;45930;53.514;55.904;2023-04-07T03:39:08;5.35;;;4.70;;
60054;SDS011;45930;53.514;55.904;2023-04-07T03:40:09;5.20;;;4.25;;
60054;SDS011;45930;53.514;55.904;2023-04-07T03:41:10;5.90;;;4.32;;
60054;SDS011;45930;53.514;55.904;2023-04-07T03:42:11;6.35;;;4.38;;
60054;SDS011;45930;53.514;55.904;2023-04-07T03:43:12;6.40;;;4.82;;
60054;SDS011;45930;53.514;55.904;2023-04-07T03:44:15;5.10;;;4.10;;
60054;SDS011;45930;53.514;55.904;2023-04-07T03:45:15;6.72;;;4.35;;
60054;SDS011;45930;53.514;55.904;2023-04-07T03:46:18;5.85;;;4.35;;
60054;SDS011;45930;53.514;55.904;2023-04-07T03:47:19;4.95;;;3.80;;
60054;SDS011;45930;53.514;55.904;2023-04-07T03:48:20;4.93;;;4.03;;
60054;SDS011;45930;53.514;55.904;2023-04-07T03:49:21;5.38;;;4.88;;
60054;SDS011;45930;53.514;55.904;2023-04-07T03:50:22;4.90;;;4.20;;
60054;SDS011;45930;53.514;55.904;2023-04-07T03:51:23;5.07;;;4.35;;
60054;SDS011;45930;53.514;55.904;2023-04-07T03:52:23;5.90;;;4.30;;
60054;SDS011;45930;53.514;55.904;2023-04-07T03:53:24;7.78;;;4.25;;
60054;SDS011;45930;53.514;55.904;2023-04-07T03:54:25;5.35;;;4.75;;
60054;SDS011;45930;53.514;55.904;2023-04-07T03:55:25;7.15;;;4.82;;
60054;SDS011;45930;53.514;55.904;2023-04-07T03:56:26;7.25;;;4.75;;
60054;SDS011;45930;53.514;55.904;2023-04-07T03:57:27;5.50;;;4.65;;
60054;SDS011;45930;53.514;55.904;2023-04-07T03:58:28;6.63;;;4.57;;
60054;SDS011;45930;53.514;55.904;2023-04-07T03:59:29;6.47;;;4.45;;
60054;SDS011;45930;53.514;55.904;2023-04-07T04:00:30;7.60;;;4.38;;
60054;SDS011;45930;53.514;55.904;2023-04-07T04:01:32;5.88;;;4.07;;
60054;SDS011;45930;53.514;55.904;2023-04-07T04:02:33;6.60;;;4.72;;
60054;SDS011;45930;53.514;55.904;2023-04-07T04:03:34;7.05;;;4.90;;
60054;SDS011;45930;53.514;55.904;2023-04-07T04:04:35;6.20;;;5.10;;
60054;SDS011;45930;53.514;55.904;2023-04-07T04:05:35;6.43;;;4.60;;
60054;SDS011;45930;53.514;55.904;2023-04-07T04:06:36;5.45;;;4.63;;
60054;SDS011;45930;53.514;55.904;2023-04-07T04:07:37;5.72;;;3.92;;
60054;SDS011;45930;53.514;55.904;2023-04-07T04:08:38;6.05;;;4.30;;
60054;SDS011;45930;53.514;55.904;2023-04-07T04:09:38;6.32;;;4.95;;
60054;SDS011;45930;53.514;55.904;2023-04-07T04:10:39;6.20;;;4.82;;
60054;SDS011;45930;53.514;55.904;2023-04-07T04:11:45;9.32;;;5.03;;
60054;SDS011;45930;53.514;55.904;2023-04-07T04:12:46;7.93;;;4.65;;
60054;SDS011;45930;53.514;55.904;2023-04-07T04:13:48;5.68;;;5.00;;
60054;SDS011;45930;53.514;55.904;2023-04-07T04:14:49;5.28;;;4.75;;
60054;SDS011;45930;53.514;55.904;2023-04-07T04:15:52;5.60;;;4.45;;
60054;SDS011;45930;53.514;55.904;2023-04-07T04:16:54;5.07;;;4.35;;
60054;SDS011;45930;53.514;55.904;2023-04-07T04:17:54;6.70;;;4.22;;
60054;SDS011;45930;53.514;55.904;2023-04-07T04:18:55;5.85;;;4.88;;
60054;SDS011;45930;53.514;55.904;2023-04-07T04:19:56;4.68;;;4.20;;
60054;SDS011;45930;53.514;55.904;2023-04-07T04:20:57;5.70;;;3.85;;
60054;SDS011;45930;53.514;55.904;2023-04-07T04:21:57;6.13;;;4.13;;
60054;SDS011;45930;53.514;55.904;2023-04-07T04:22:58;5.10;;;4.47;;
60054;SDS011;45930;53.514;55.904;2023-04-07T04:23:59;5.63;;;4.50;;
60054;SDS011;45930;53.514;55.904;2023-04-07T04:25:00;7.38;;;4.82;;
60054;SDS011;45930;53.514;55.904;2023-04-07T04:26:01;5.25;;;4.25;;
60054;SDS011;45930;53.514;55.904;2023-04-07T04:27:03;5.30;;;4.30;;
60054;SDS011;45930;53.514;55.904;2023-04-07T04:28:03;5.13;;;4.53;;
60054;SDS011;45930;53.514;55.904;2023-04-07T04:29:04;6.65;;;4.57;;
60054;SDS011;45930;53.514;55.904;2023-04-07T04:30:05;5.78;;;4.43;;
60054;SDS011;45930;53.514;55.904;2023-04-07T04:31:07;6.20;;;4.85;;
60054;SDS011;45930;53.514;55.904;2023-04-07T04:32:08;5.18;;;4.43;;
60054;SDS011;45930;53.514;55.904;2023-04-07T04:33:08;6.80;;;5.10;;
60054;SDS011;45930;53.514;55.904;2023-04-07T04:34:09;8.07;;;4.82;;
60054;SDS011;45930;53.514;55.904;2023-04-07T04:35:10;7.68;;;5.35;;
60054;SDS011;45930;53.514;55.904;2023-04-07T04:36:11;5.85;;;4.70;;
60054;SDS011;45930;53.514;55.904;2023-04-07T04:37:12;5.60;;;4.35;;
60054;SDS011;45930;53.514;55.904;2023-04-07T04:38:13;5.63;;;4.97;;
60054;SDS011;45930;53.514;55.904;2023-04-07T04:39:14;6.47;;;4.60;;
60054;SDS011;45930;53.514;55.904;2023-04-07T04:40:14;6.70;;;4.63;;
60054;SDS011;45930;53.514;55.904;2023-04-07T04:41:15;5.18;;;4.18;;
60054;SDS011;45930;53.514;55.904;2023-04-07T04:42:18;5.03;;;4.50;;
60054;SDS011;45930;53.514;55.904;2023-04-07T04:43:19;5.97;;;4.38;;
60054;SDS011;45930;53.514;55.904;2023-04-07T04:44:19;7.15;;;4.78;;
60054;SDS011;45930;53.514;55.904;2023-04-07T04:45:20;6.43;;;4.20;;
60054;SDS011;45930;53.514;55.904;2023-04-07T04:46:21;5.45;;;4.50;;
60054;SDS011;45930;53.514;55.904;2023-04-07T04:47:21;5.65;;;4.65;;
60054;SDS011;45930;53.514;55.904;2023-04-07T04:48:22;5.45;;;4.18;;
60054;SDS011;45930;53.514;55.904;2023-04-07T04:49:23;4.70;;;4.20;;
60054;SDS011;45930;53.514;55.904;2023-04-07T04:50:24;5.45;;;4.05;;
60054;SDS011;45930;53.514;55.904;2023-04-07T04:51:24;6.22;;;4.30;;
60054;SDS011;45930;53.514;55.904;2023-04-07T04:52:25;6.63;;;4.18;;
60054;SDS011;45930;53.514;55.904;2023-04-07T04:53:26;5.13;;;4.03;;
60054;SDS011;45930;53.514;55.904;2023-04-07T04:54:27;4.85;;;3.72;;
60054;SDS011;45930;53.514;55.904;2023-04-07T04:55:28;6.45;;;3.83;;
60054;SDS011;45930;53.514;55.904;2023-04-07T04:56:29;5.43;;;4.18;;
60054;SDS011;45930;53.514;55.904;2023-04-07T04:57:30;5.65;;;4.03;;
60054;SDS011;45930;53.514;55.904;2023-04-07T04:58:31;6.57;;;4.32;;
60054;SDS011;45930;53.514;55.904;2023-04-07T04:59:32;4.63;;;3.70;;
60054;SDS011;45930;53.514;55.904;2023-04-07T05:00:33;4.55;;;4.00;;
60054;SDS011;45930;53.514;55.904;2023-04-07T05:01:34;4.68;;;4.10;;
60054;SDS011;45930;53.514;55.904;2023-04-07T05:02:35;5.93;;;3.65;;
60054;SDS011;45930;53.514;55.904;2023-04-07T05:03:36;4.75;;;3.78;;
60054;SDS011;45930;53.514;55.904;2023-04-07T05:04:37;5.47;;;4.15;;
60054;SDS011;45930;53.514;55.904;2023-04-07T05:05:38;4.93;;;3.75;;
60054;SDS011;45930;53.514;55.904;2023-04-07T05:06:38;6.15;;;3.78;;
60054;SDS011;45930;53.514;55.904;2023-04-07T05:07:39;4.63;;;3.95;;
60054;SDS011;45930;53.514;55.904;2023-04-07T05:08:41;5.88;;;3.95;;
60054;SDS011;45930;53.514;55.904;2023-04-07T05:09:42;6.70;;;4.10;;
60054;SDS011;45930;53.514;55.904;2023-04-07T05:10:42;6.40;;;4.43;;
60054;SDS011;45930;53.514;55.904;2023-04-07T05:11:43;4.60;;;3.65;;
60054;SDS011;45930;53.514;55.904;2023-04-07T05:12:44;4.80;;;3.90;;
60054;SDS011;45930;53.514;55.904;2023-04-07T05:13:45;5.78;;;4.18;;
60054;SDS011;45930;53.514;55.904;2023-04-07T05:14:45;4.68;;;3.63;;
60054;SDS011;45930;53.514;55.904;2023-04-07T05:15:46;4.50;;;3.90;;
60054;SDS011;45930;53.514;55.904;2023-04-07T05:16:47;5.28;;;4.10;;
60054;SDS011;45930;53.514;55.904;2023-04-07T05:17:48;5.15;;;3.63;;
60054;SDS011;45930;53.514;55.904;2023-04-07T05:18:49;5.07;;;3.72;;
60054;SDS011;45930;53.514;55.904;2023-04-07T05:19:50;7.03;;;3.97;;
60054;SDS011;45930;53.514;55.904;2023-04-07T05:20:51;4.93;;;3.80;;
60054;SDS011;45930;53.514;55.904;2023-04-07T05:21:51;5.47;;;3.65;;
60054;SDS011;45930;53.514;55.904;2023-04-07T05:22:52;4.63;;;3.85;;
60054;SDS011;45930;53.514;55.904;2023-04-07T05:23:53;4.95;;;3.50;;
60054;SDS011;45930;53.514;55.904;2023-04-07T05:24:54;5.60;;;3.47;;
60054;SDS011;45930;53.514;55.904;2023-04-07T05:25:54;5.32;;;3.70;;
60054;SDS011;45930;53.514;55.904;2023-04-07T05:26:55;6.63;;;3.00;;
60054;SDS011;45930;53.514;55.904;2023-04-07T05:27:56;6.90;;;3.65;;
60054;SDS011;45930;53.514;55.904;2023-04-07T05:28:59;5.68;;;3.22;;
60054;SDS011;45930;53.514;55.904;2023-04-07T05:29:59;3.80;;;2.70;;
60054;SDS011;45930;53.514;55.904;2023-04-07T05:31:00;4.07;;;3.03;;
60054;SDS011;45930;53.514;55.904;2023-04-07T05:32:03;3.55;;;3.03;;
60054;SDS011;45930;53.514;55.904;2023-04-07T05:33:05;3.55;;;2.70;;
60054;SDS011;45930;53.514;55.904;2023-04-07T05:34:05;4.00;;;2.95;;
60054;SDS011;45930;53.514;55.904;2023-04-07T05:35:06;4.22;;;2.90;;
60054;SDS011;45930;53.514;55.904;2023-04-07T05:36:07;4.45;;;3.35;;
60054;SDS011;45930;53.514;55.904;2023-04-07T05:37:08;4.28;;;3.33;;
60054;SDS011;45930;53.514;55.904;2023-04-07T05:38:09;4.18;;;2.97;;
60054;SDS011;45930;53.514;55.904;2023-04-07T05:39:10;4.03;;;2.90;;
60054;SDS011;45930;53.514;55.904;2023-04-07T05:40:11;3.10;;;2.75;;
60054;SDS011;45930;53.514;55.904;2023-04-07T05:41:13;4.05;;;2.92;;
60054;SDS011;45930;53.514;55.904;2023-04-07T05:42:14;3.78;;;2.90;;
60054;SDS011;45930;53.514;55.904;2023-04-07T05:43:14;4.75;;;2.90;;
60054;SDS011;45930;53.514;55.904;2023-04-07T05:44:15;3.70;;;2.97;;
60054;SDS011;45930;53.514;55.904;2023-04-07T05:45:16;5.05;;;3.25;;
60054;SDS011;45930;53.514;55.904;2023-04-07T05:46:17;4.63;;;3.03;;
60054;SDS011;45930;53.514;55.904;2023-04-07T05:47:18;4.38;;;3.08;;
60054;SDS011;45930;53.514;55.904;2023-04-07T05:48:19;3.78;;;3.30;;
60054;SDS011;45930;53.514;55.904;2023-04-07T05:49:20;4.43;;;2.88;;
60054;SDS011;45930;53.514;55.904;2023-04-07T05:50:20;3.00;;;2.70;;
60054;SDS011;45930;53.514;55.904;2023-04-07T05:51:21;4.15;;;3.28;;
60054;SDS011;45930;53.514;55.904;2023-04-07T05:52:22;3.63;;;3.13;;
60054;SDS011;45930;53.514;55.904;2023-04-07T05:53:23;3.50;;;3.20;;
60054;SDS011;45930;53.514;55.904;2023-04-07T05:54:23;3.17;;;2.85;;
60054;SDS011;45930;53.514;55.904;2023-04-07T05:55:24;3.80;;;2.88;;
60054;SDS011;45930;53.514;55.904;2023-04-07T05:56:25;4.32;;;2.60;;
60054;SDS011;45930;53.514;55.904;2023-04-07T05:57:26;3.45;;;2.95;;
60054;SDS011;45930;53.514;55.904;2023-04-07T05:58:27;3.20;;;2.72;;
60054;SDS011;45930;53.514;55.904;2023-04-07T05:59:28;2.97;;;2.65;;
60054;SDS011;45930;53.514;55.904;2023-04-07T06:00:29;4.35;;;2.92;;
60054;SDS011;45930;53.514;55.904;2023-04-07T06:01:30;3.05;;;2.75;;
60054;SDS011;45930;53.514;55.904;2023-04-07T06:02:31;3.25;;;2.63;;
60054;SDS011;45930;53.514;55.904;2023-04-07T06:03:31;4.10;;;2.70;;
60054;SDS011;45930;53.514;55.904;2023-04-07T06:04:32;3.47;;;2.97;;
60054;SDS011;45930;53.514;55.904;2023-04-07T06:05:34;4.25;;;2.80;;
60054;SDS011;45930;53.514;55.904;2023-04-07T06:06:35;3.30;;;2.65;;
60054;SDS011;45930;53.514;55.904;2023-04-07T06:07:36;2.75;;;2.30;;
60054;SDS011;45930;53.514;55.904;2023-04-07T06:08:36;3.00;;;2.65;;
60054;SDS011;45930;53.514;55.904;2023-04-07T06:09:37;3.00;;;2.55;;
60054;SDS011;45930;53.514;55.904;2023-04-07T06:10:38;3.03;;;2.40;;
60054;SDS011;45930;53.514;55.904;2023-04-07T06:11:41;3.75;;;2.80;;
60054;SDS011;45930;53.514;55.904;2023-04-07T06:12:41;3.88;;;3.28;;
60054;SDS011;45930;53.514;55.904;2023-04-07T06:13:42;5.13;;;2.47;;